Time;durP1;ratioP1;P1;durP2;ratioP2;P2;SDS_P1;SDS_P2;PMS_P1;PMS_P2;Temp;Humidity;BMP_temperature;BMP_pressure;BME280_temperature;BME280_humidity;BME280_pressure;Samples;Min_cycle;Max_cycle;Signal;HPM_P1;HPM_P2
2021/06/01 00:01:17;;;;;;;5.72;5.22;;;11.40;85.30;;;;;;5106445;28;20198;-69
2021/06/01 00:03:44;;;;;;;5.60;5.20;;;11.40;86.10;;;;;;5105816;28;20214;-69
2021/06/01 00:06:10;;;;;;;5.20;4.70;;;11.40;85.20;;;;;;5105581;28;20312;-69
2021/06/01 00:08:38;;;;;;;7.15;5.32;;;11.30;85.80;;;;;;5105259;28;20234;-69
2021/06/01 00:11:05;;;;;;;5.05;4.57;;;11.30;86.30;;;;;;5106083;28;20283;-69
2021/06/01 00:13:31;;;;;;;5.50;4.90;;;11.30;86.60;;;;;;5105177;28;20206;-69
2021/06/01 00:15:58;;;;;;;5.95;5.07;;;11.20;86.10;;;;;;5105068;28;20200;-69
2021/06/01 00:18:24;;;;;;;5.15;4.75;;;11.20;86.40;;;;;;5106034;28;20226;-69
2021/06/01 00:20:51;;;;;;;5.85;5.35;;;11.10;85.40;;;;;;5093380;28;20206;-69
2021/06/01 00:23:17;;;;;;;6.25;5.60;;;11.00;86.90;;;;;;5105756;28;20227;-69
2021/06/01 00:25:45;;;;;;;5.55;5.15;;;11.00;87.30;;;;;;5105299;28;20199;-69
2021/06/01 00:28:11;;;;;;;5.80;5.30;;;10.90;88.70;;;;;;5106337;28;20227;-69
2021/06/01 00:30:40;;;;;;;6.35;5.30;;;10.80;89.50;;;;;;5108204;28;20315;-69
2021/06/01 00:33:06;;;;;;;5.88;5.38;;;10.80;88.00;;;;;;5107892;28;20256;-68
2021/06/01 00:35:34;;;;;;;5.78;5.05;;;11.00;89.00;;;;;;5109246;28;20204;-69
2021/06/01 00:38:02;;;;;;;7.30;4.95;;;11.00;89.20;;;;;;5108221;28;20230;-69
2021/06/01 00:40:28;;;;;;;6.75;4.90;;;10.90;89.00;;;;;;5107582;28;20311;-69
2021/06/01 00:42:56;;;;;;;5.78;5.10;;;10.90;88.40;;;;;;5100759;28;20807;-69
2021/06/01 00:45:25;;;;;;;5.25;4.85;;;10.90;88.00;;;;;;5106644;28;20216;-69
2021/06/01 00:47:52;;;;;;;5.28;4.85;;;10.80;88.50;;;;;;5108129;28;20231;-69
2021/06/01 00:50:21;;;;;;;5.07;4.68;;;10.90;87.50;;;;;;5108188;28;20286;-69
2021/06/01 00:52:47;;;;;;;4.80;4.40;;;10.80;88.10;;;;;;5108962;28;20200;-69
2021/06/01 00:55:14;;;;;;;5.28;4.88;;;10.90;88.10;;;;;;5107081;28;20373;-69
2021/06/01 00:57:41;;;;;;;5.55;5.07;;;10.80;87.10;;;;;;5107394;28;20200;-69
2021/06/01 01:00:26;;;;;;;5.65;5.03;;;10.80;88.50;;;;;;5109649;28;20283;-69
2021/06/01 01:02:52;;;;;;;5.72;5.22;;;10.90;88.40;;;;;;5105839;28;20219;-68
2021/06/01 01:05:20;;;;;;;5.63;5.07;;;10.90;88.70;;;;;;5104361;28;20577;-69
2021/06/01 01:08:01;;;;;;;5.25;4.80;;;10.90;88.50;;;;;;5104370;28;22079;-69
2021/06/01 01:10:29;;;;;;;6.25;5.75;;;10.90;89.00;;;;;;5100726;28;20237;-69
2021/06/01 01:13:00;;;;;;;5.80;5.38;;;10.80;88.60;;;;;;5102769;28;20250;-69
2021/06/01 01:15:31;;;;;;;5.50;5.10;;;10.80;89.80;;;;;;5104372;28;20664;-69
2021/06/01 01:17:58;;;;;;;5.55;5.05;;;10.70;90.30;;;;;;5092829;28;20231;-69
2021/06/01 01:20:36;;;;;;;6.00;5.40;;;10.70;90.10;;;;;;5103379;28;20654;-69
2021/06/01 01:23:11;;;;;;;7.35;5.60;;;10.60;90.40;;;;;;5106036;28;20199;-69
2021/06/01 01:25:43;;;;;;;5.28;4.78;;;10.50;90.80;;;;;;5099140;28;20235;-69
2021/06/01 01:28:25;;;;;;;6.22;5.72;;;10.40;90.60;;;;;;5102789;28;20592;-69
2021/06/01 01:30:57;;;;;;;6.57;5.45;;;10.30;91.50;;;;;;5104487;28;20197;-68
2021/06/01 01:33:28;;;;;;;6.60;6.00;;;10.30;91.80;;;;;;5099625;28;20240;-69
2021/06/01 01:36:00;;;;;;;6.00;5.50;;;10.20;92.30;;;;;;5103200;28;20204;-69
2021/06/01 01:38:28;;;;;;;5.85;5.35;;;10.20;92.40;;;;;;5106927;28;20246;-69
2021/06/01 01:40:58;;;;;;;6.28;5.60;;;10.20;92.40;;;;;;5103341;28;20204;-68
2021/06/01 01:43:28;;;;;;;6.55;5.95;;;10.20;92.40;;;;;;5105794;28;20260;-68
2021/06/01 01:46:04;;;;;;;5.38;4.88;;;10.30;92.40;;;;;;5102254;28;20206;-68
2021/06/01 01:51:19;;;;;;;5.65;5.15;;;10.10;92.50;;;;;;5097779;28;20211;-69
2021/06/01 01:53:51;;;;;;;5.95;5.43;;;10.10;92.80;;;;;;5106134;28;20200;-69
2021/06/01 01:56:19;;;;;;;6.18;5.68;;;10.00;92.70;;;;;;5105242;28;20226;-69
2021/06/01 01:58:47;;;;;;;6.10;5.50;;;9.80;93.50;;;;;;5102320;28;20287;-69
2021/06/01 02:01:14;;;;;;;6.47;5.97;;;9.80;94.60;;;;;;5106675;28;20219;-69
2021/06/01 02:03:43;;;;;;;5.55;5.05;;;9.80;94.80;;;;;;5106725;28;20235;-69
2021/06/01 02:06:10;;;;;;;6.85;6.25;;;9.80;94.30;;;;;;5108112;28;20209;-69
2021/06/01 02:08:38;;;;;;;6.35;5.82;;;9.90;94.50;;;;;;5106579;28;20237;-69
2021/06/01 02:11:05;;;;;;;6.20;5.70;;;9.90;94.80;;;;;;5106886;28;20214;-69
2021/06/01 02:13:32;;;;;;;5.85;5.22;;;9.90;95.00;;;;;;5107543;28;20204;-69
2021/06/01 02:15:59;;;;;;;6.57;5.97;;;10.00;93.90;;;;;;5105541;28;20625;-69
2021/06/01 02:18:25;;;;;;;6.72;6.03;;;9.90;94.70;;;;;;5104009;28;20210;-68
2021/06/01 02:20:55;;;;;;;6.70;6.05;;;9.80;95.40;;;;;;5106014;28;20202;-68
2021/06/01 02:23:48;;;;;;;6.00;5.50;;;9.70;96.10;;;;;;5106143;28;20728;-69
2021/06/01 02:26:22;;;;;;;6.22;5.55;;;9.70;96.10;;;;;;5104841;28;20208;-69
2021/06/01 02:28:52;;;;;;;5.63;5.05;;;9.70;96.10;;;;;;5105964;28;20227;-69
2021/06/01 02:31:21;;;;;;;6.40;5.57;;;9.60;96.20;;;;;;5106187;28;20299;-69
2021/06/01 02:33:50;;;;;;;6.07;5.47;;;9.40;96.30;;;;;;5106124;28;20211;-68
2021/06/01 02:36:19;;;;;;;6.95;6.25;;;9.30;96.70;;;;;;5107564;28;20203;-68
2021/06/01 02:38:46;;;;;;;6.82;6.18;;;9.20;97.10;;;;;;5105084;28;20211;-68
2021/06/01 02:41:15;;;;;;;6.80;6.13;;;9.20;97.30;;;;;;5099064;28;20200;-68
2021/06/01 02:43:42;;;;;;;5.88;5.38;;;9.20;97.50;;;;;;5106131;28;20206;-68
2021/06/01 02:46:09;;;;;;;7.82;6.25;;;9.20;97.60;;;;;;5107000;28;20626;-69
2021/06/01 02:48:35;;;;;;;6.45;5.95;;;9.20;97.60;;;;;;5105706;28;20227;-69
2021/06/01 02:51:15;;;;;;;7.68;7.07;;;9.20;98.40;;;;;;5104726;27;20204;-69
2021/06/01 02:53:45;;;;;;;5.85;5.32;;;9.30;98.00;;;;;;5107032;28;20195;-68
2021/06/01 02:56:12;;;;;;;6.20;5.30;;;9.50;98.20;;;;;;5103645;28;20203;-68
2021/06/01 02:58:40;;;;;;;7.32;6.50;;;9.50;97.90;;;;;;5104037;28;20302;-68
2021/06/01 03:01:07;;;;;;;7.20;6.50;;;9.40;97.80;;;;;;5102707;28;20201;-69
2021/06/01 03:03:33;;;;;;;6.57;5.97;;;9.40;98.50;;;;;;5106550;28;20571;-68
2021/06/01 03:05:59;;;;;;;6.50;6.00;;;9.30;98.40;;;;;;5106395;28;20214;-68
2021/06/01 03:08:28;;;;;;;7.70;6.18;;;9.20;98.50;;;;;;5097754;28;20232;-68
2021/06/01 03:10:57;;;;;;;6.50;5.90;;;9.10;99.00;;;;;;5106150;28;20200;-68
2021/06/01 03:13:24;;;;;;;6.72;6.03;;;9.00;99.10;;;;;;5106183;28;20202;-69
2021/06/01 03:15:51;;;;;;;7.18;6.47;;;8.90;99.40;;;;;;5098116;28;20192;-68
2021/06/01 03:18:18;;;;;;;7.57;6.60;;;8.80;99.90;;;;;;5105178;28;20206;-68
2021/06/01 03:20:45;;;;;;;7.57;6.88;;;8.70;99.90;;;;;;5101364;28;20677;-68
2021/06/01 03:23:12;;;;;;;7.05;6.28;;;8.60;99.90;;;;;;5103588;28;20616;-68
2021/06/01 03:25:39;;;;;;;7.15;6.55;;;8.60;99.90;;;;;;5104573;28;20255;-68
2021/06/01 03:28:07;;;;;;;7.47;6.78;;;8.50;99.90;;;;;;5106566;28;20200;-69
2021/06/01 03:30:33;;;;;;;7.18;6.47;;;8.40;99.90;;;;;;5099337;28;20203;-68
2021/06/01 03:33:00;;;;;;;7.53;6.85;;;8.40;99.90;;;;;;5106225;28;20202;-68
2021/06/01 03:35:26;;;;;;;7.70;7.00;;;8.30;99.90;;;;;;5102254;28;20202;-68
2021/06/01 03:37:54;;;;;;;8.25;7.40;;;8.30;99.90;;;;;;5105918;28;20208;-69
2021/06/01 03:40:20;;;;;;;8.40;7.63;;;8.30;99.90;;;;;;5105775;28;20199;-69
2021/06/01 03:42:47;;;;;;;7.55;6.85;;;8.30;99.90;;;;;;5105849;28;20230;-69
2021/06/01 03:45:15;;;;;;;9.20;8.25;;;8.30;99.90;;;;;;5106279;28;20207;-69
2021/06/01 03:47:42;;;;;;;6.63;6.00;;;8.30;99.90;;;;;;5102958;28;20256;-69
2021/06/01 03:50:09;;;;;;;8.35;7.47;;;8.30;99.90;;;;;;5098388;28;20331;-69
2021/06/01 03:52:36;;;;;;;7.90;7.20;;;8.30;99.90;;;;;;5104082;28;20298;-68
2021/06/01 03:55:03;;;;;;;10.27;7.22;;;8.40;99.90;;;;;;5105100;28;20198;-68
2021/06/01 03:57:30;;;;;;;7.63;6.93;;;8.40;99.90;;;;;;5104067;28;20574;-68
2021/06/01 03:59:56;;;;;;;9.13;7.95;;;8.60;99.90;;;;;;5106274;28;20290;-69
2021/06/01 04:02:24;;;;;;;7.10;6.45;;;8.70;99.90;;;;;;5105277;28;20200;-68
2021/06/01 04:04:51;;;;;;;7.93;6.82;;;8.80;99.90;;;;;;5103370;28;20200;-69
2021/06/01 04:07:17;;;;;;;7.03;6.15;;;9.20;99.90;;;;;;5105927;28;20636;-69
2021/06/01 04:09:43;;;;;;;6.15;5.63;;;10.70;99.90;;;;;;5102662;28;20322;-69
2021/06/01 04:12:11;;;;;;;6.03;5.13;;;12.70;99.80;;;;;;5105702;28;20210;-69
2021/06/01 04:14:37;;;;;;;5.97;5.47;;;14.50;93.30;;;;;;5105010;28;20196;-69
2021/06/01 04:17:04;;;;;;;5.43;4.93;;;16.30;89.10;;;;;;5105195;28;20208;-69
2021/06/01 04:19:33;;;;;;;6.07;5.57;;;17.40;84.70;;;;;;5105724;28;20204;-69
2021/06/01 04:21:59;;;;;;;6.00;5.60;;;18.90;78.00;;;;;;5103791;28;20212;-69
2021/06/01 04:24:27;;;;;;;6.50;5.90;;;19.20;72.00;;;;;;5104278;28;20208;-70
2021/06/01 04:26:55;;;;;;;6.60;6.10;;;20.50;69.70;;;;;;5100185;28;20636;-69
2021/06/01 04:29:22;;;;;;;6.50;6.00;;;20.90;66.70;;;;;;5104540;28;20669;-69
2021/06/01 04:31:48;;;;;;;5.90;5.47;;;21.00;65.40;;;;;;5105159;28;20740;-69
2021/06/01 04:34:15;;;;;;;6.10;5.60;;;21.10;64.50;;;;;;5105070;28;20629;-69
2021/06/01 04:36:42;;;;;;;6.17;5.70;;;21.10;65.00;;;;;;5105470;28;20733;-69
2021/06/01 04:39:09;;;;;;;5.90;5.40;;;21.40;64.00;;;;;;5105906;28;21002;-69
2021/06/01 04:41:35;;;;;;;5.37;4.97;;;22.30;61.70;;;;;;5102114;28;21190;-69
2021/06/01 04:44:02;;;;;;;6.43;5.90;;;23.30;59.40;;;;;;5103145;28;21196;-69
2021/06/01 04:46:28;;;;;;;6.77;6.17;;;23.90;57.10;;;;;;5099163;28;20731;-70
2021/06/01 04:48:54;;;;;;;6.30;5.80;;;24.20;57.00;;;;;;5104098;28;20686;-69
2021/06/01 04:51:21;;;;;;;7.13;6.50;;;24.90;55.60;;;;;;5103986;28;20629;-70
2021/06/01 04:53:49;;;;;;;6.30;5.80;;;25.20;54.80;;;;;;5103337;28;20604;-70
2021/06/01 04:56:16;;;;;;;5.77;5.27;;;25.90;53.60;;;;;;5098521;28;20676;-69
2021/06/01 04:58:42;;;;;;;6.37;5.97;;;26.60;53.10;;;;;;5101781;28;20726;-70
2021/06/01 05:01:08;;;;;;;6.10;5.60;;;25.60;52.70;;;;;;5099147;28;20632;-70
2021/06/01 05:03:35;;;;;;;5.97;5.50;;;25.50;54.50;;;;;;5101144;28;21257;-70
2021/06/01 05:06:01;;;;;;;6.63;6.13;;;25.40;54.50;;;;;;5101904;28;20626;-70
2021/06/01 05:08:28;;;;;;;6.10;5.60;;;25.40;54.60;;;;;;5099712;28;20755;-70
2021/06/01 05:10:55;;;;;;;6.67;6.00;;;25.60;53.70;;;;;;5105397;28;20774;-70
2021/06/01 05:13:22;;;;;;;5.67;5.30;;;25.70;52.30;;;;;;5099696;28;20638;-70
2021/06/01 05:15:49;;;;;;;5.20;4.80;;;26.10;53.30;;;;;;5102229;28;21274;-70
2021/06/01 05:18:16;;;;;;;6.13;5.73;;;26.10;51.80;;;;;;5107204;28;20636;-70
2021/06/01 05:20:43;;;;;;;7.20;6.70;;;26.20;52.50;;;;;;5108249;28;20636;-69
2021/06/01 05:23:10;;;;;;;7.90;6.60;;;26.60;52.40;;;;;;5099677;28;20644;-67
2021/06/01 05:25:37;;;;;;;6.80;6.20;;;26.10;52.50;;;;;;5104934;28;20633;-67
2021/06/01 05:28:05;;;;;;;6.30;5.80;;;26.20;52.20;;;;;;5104501;28;20633;-67
2021/06/01 05:30:36;;;;;;;7.63;6.93;;;26.30;52.50;;;;;;5104589;28;21176;-68
2021/06/01 05:33:14;;;;;;;6.20;5.70;;;26.70;52.50;;;;;;5102181;28;20636;-68
2021/06/01 05:35:45;;;;;;;6.43;5.80;;;26.90;51.40;;;;;;5101645;28;20756;-68
2021/06/01 05:38:12;;;;;;;7.30;6.60;;;26.30;52.30;;;;;;5105538;28;21271;-68
2021/06/01 05:40:38;;;;;;;6.70;6.10;;;26.60;52.50;;;;;;5101124;28;21561;-68
2021/06/01 05:43:06;;;;;;;5.93;5.50;;;26.50;53.00;;;;;;5101271;28;20644;-68
2021/06/01 05:45:32;;;;;;;6.73;6.13;;;25.90;53.00;;;;;;5104036;28;20724;-68
2021/06/01 05:47:59;;;;;;;6.00;5.40;;;26.40;52.70;;;;;;5097598;28;20724;-68
2021/06/01 05:50:26;;;;;;;5.20;4.80;;;27.10;51.30;;;;;;5100729;28;21254;-69
2021/06/01 05:52:52;;;;;;;5.53;5.13;;;27.80;49.40;;;;;;5107423;28;20664;-69
2021/06/01 05:55:18;;;;;;;5.20;4.90;;;28.40;47.40;;;;;;5105469;28;20712;-69
2021/06/01 05:57:45;;;;;;;5.90;5.50;;;29.20;46.20;;;;;;5106034;27;20720;-69
2021/06/01 06:00:14;;;;;;;5.80;5.30;;;29.30;48.00;;;;;;5114465;27;20708;-68
2021/06/01 06:02:40;;;;;;;7.57;6.90;;;29.60;46.90;;;;;;5110224;28;20627;-68
2021/06/01 06:05:08;;;;;;;6.10;5.60;;;28.30;48.70;;;;;;5107702;28;20642;-69
2021/06/01 06:07:34;;;;;;;6.63;6.13;;;28.80;48.50;;;;;;5104030;28;20633;-68
2021/06/01 06:10:01;;;;;;;6.40;5.90;;;28.30;50.20;;;;;;5104947;28;20651;-68
2021/06/01 06:12:27;;;;;;;6.50;6.00;;;28.40;48.70;;;;;;5104131;28;20733;-68
2021/06/01 06:14:53;;;;;;;6.57;5.97;;;28.50;48.00;;;;;;5097712;28;21393;-68
2021/06/01 06:17:30;;;;;;;6.83;6.33;;;28.10;49.30;;;;;;5105244;28;20636;-68
2021/06/01 06:19:59;;;;;;;6.60;6.00;;;28.40;48.50;;;;;;5100432;28;20713;-68
2021/06/01 06:22:25;;;;;;;6.97;5.97;;;27.80;49.30;;;;;;5102286;28;20659;-68
2021/06/01 06:24:52;;;;;;;6.70;6.20;;;27.60;48.70;;;;;;5095900;28;20625;-68
2021/06/01 06:27:19;;;;;;;6.47;6.07;;;27.40;50.30;;;;;;5102027;28;20741;-68
2021/06/01 06:29:45;;;;;;;6.70;6.20;;;27.80;50.60;;;;;;5105779;28;20643;-68
2021/06/01 06:32:12;;;;;;;5.63;5.17;;;28.10;50.10;;;;;;5092730;28;20725;-68
2021/06/01 06:34:40;;;;;;;5.10;4.70;;;30.10;45.70;;;;;;5101295;28;20626;-68
2021/06/01 06:37:06;;;;;;;4.40;4.10;;;29.30;45.80;;;;;;5099723;28;21580;-68
2021/06/01 06:39:33;;;;;;;5.13;4.57;;;29.40;43.60;;;;;;5099651;28;20761;-68
2021/06/01 06:42:00;;;;;;;5.07;4.70;;;29.70;46.40;;;;;;5102602;28;20661;-69
2021/06/01 06:44:26;;;;;;;3.90;3.70;;;30.10;42.90;;;;;;5106065;28;20634;-68
2021/06/01 06:47:04;;;;;;;4.50;4.20;;;30.50;43.60;;;;;;5099783;28;20725;-68
2021/06/01 06:49:32;;;;;;;4.80;4.50;;;30.30;42.40;;;;;;5097089;28;20665;-68
2021/06/01 06:52:00;;;;;;;4.03;3.73;;;29.50;43.60;;;;;;5102661;28;20729;-67
2021/06/01 06:54:26;;;;;;;4.70;4.30;;;29.80;42.70;;;;;;5097858;28;20637;-67
2021/06/01 06:56:53;;;;;;;4.50;4.20;;;30.50;43.50;;;;;;5096991;28;20629;-66
2021/06/01 06:59:19;;;;;;;4.30;4.00;;;30.80;42.70;;;;;;5102972;28;21280;-67
2021/06/01 07:01:45;;;;;;;4.60;4.20;;;31.20;40.70;;;;;;5102960;28;20685;-67
2021/06/01 07:04:12;;;;;;;4.20;3.90;;;30.30;41.20;;;;;;5102883;28;20697;-66
2021/06/01 07:06:38;;;;;;;4.83;4.43;;;28.60;43.80;;;;;;5102987;28;20641;-67
2021/06/01 07:09:07;;;;;;;5.33;4.93;;;28.10;44.00;;;;;;5102291;28;20998;-67
2021/06/01 07:11:34;;;;;;;5.20;4.80;;;28.40;44.60;;;;;;5102429;28;20734;-67
2021/06/01 07:14:06;;;;;;;4.67;4.27;;;28.20;44.50;;;;;;5101783;28;20650;-67
2021/06/01 07:16:33;;;;;;;4.20;3.93;;;27.80;44.70;;;;;;5096026;28;20629;-67
2021/06/01 07:18:59;;;;;;;4.70;4.30;;;27.70;45.40;;;;;;5102189;28;21176;-67
2021/06/01 07:21:26;;;;;;;4.93;4.43;;;29.10;45.30;;;;;;5098297;28;20622;-66
2021/06/01 07:23:52;;;;;;;4.13;3.93;;;29.50;42.50;;;;;;5098978;28;20640;-67
2021/06/01 07:26:20;;;;;;;3.30;3.10;;;29.70;42.00;;;;;;5102492;28;20702;-67
2021/06/01 07:28:47;;;;;;;4.07;3.80;;;30.00;42.60;;;;;;5094902;28;20655;-67
2021/06/01 07:31:14;;;;;;;4.40;4.00;;;29.70;42.40;;;;;;5090845;28;20621;-67
2021/06/01 07:33:41;;;;;;;4.60;4.30;;;29.40;41.40;;;;;;5104705;28;20634;-67
2021/06/01 07:36:08;;;;;;;4.63;4.27;;;28.10;42.50;;;;;;5098600;28;20768;-67
2021/06/01 07:38:35;;;;;;;4.40;4.10;;;27.50;43.70;;;;;;5096923;28;20654;-67
2021/06/01 07:41:02;;;;;;;4.23;4.03;;;27.50;44.40;;;;;;5099923;28;20631;-67
2021/06/01 07:43:30;;;;;;;4.03;3.73;;;27.60;44.60;;;;;;5098059;28;20619;-67
2021/06/01 07:45:57;;;;;;;3.70;3.50;;;27.90;45.20;;;;;;5097542;28;20957;-67
2021/06/01 07:48:23;;;;;;;4.03;3.73;;;28.30;43.00;;;;;;5093310;28;20740;-67
2021/06/01 07:50:50;;;;;;;3.77;3.57;;;27.40;43.60;;;;;;5101141;28;20639;-67
2021/06/01 07:53:17;;;;;;;4.10;3.70;;;26.60;44.90;;;;;;5102388;28;20632;-67
2021/06/01 07:55:44;;;;;;;4.20;3.90;;;26.40;46.00;;;;;;5099128;28;20695;-67
2021/06/01 07:58:10;;;;;;;3.77;3.57;;;26.70;45.40;;;;;;5098272;28;21185;-67
2021/06/01 08:00:38;;;;;;;4.07;3.77;;;27.10;44.70;;;;;;5103968;28;20680;-67
2021/06/01 08:03:05;;;;;;;4.43;4.10;;;27.10;44.10;;;;;;5100473;28;20635;-67
2021/06/01 08:05:31;;;;;;;4.30;4.00;;;27.00;44.80;;;;;;5098127;28;20634;-67
2021/06/01 08:07:58;;;;;;;4.40;4.00;;;26.90;45.40;;;;;;5100878;28;20616;-67
2021/06/01 08:10:25;;;;;;;4.03;3.73;;;26.60;46.00;;;;;;5103261;28;20609;-67
2021/06/01 08:12:53;;;;;;;3.80;3.53;;;26.70;44.80;;;;;;5101061;28;20744;-67
2021/06/01 08:15:21;;;;;;;3.87;3.50;;;26.70;44.50;;;;;;5101357;28;21173;-67
2021/06/01 08:17:52;;;;;;;3.60;3.40;;;26.60;44.90;;;;;;5103029;28;20624;-67
2021/06/01 08:20:30;;;;;;;3.90;3.60;;;26.40;45.60;;;;;;5097467;28;20668;-67
2021/06/01 08:22:56;;;;;;;3.70;3.40;;;27.00;45.10;;;;;;5092962;28;20600;-67
2021/06/01 08:25:23;;;;;;;3.83;3.63;;;26.90;42.30;;;;;;5096792;28;20636;-68
2021/06/01 08:27:50;;;;;;;3.73;3.43;;;26.00;43.80;;;;;;5096782;28;20640;-67
2021/06/01 08:30:17;;;;;;;3.60;3.40;;;25.00;44.00;;;;;;5098027;28;20728;-68
2021/06/01 08:32:43;;;;;;;3.53;3.23;;;25.10;44.20;;;;;;5100670;28;20640;-68
2021/06/01 08:35:11;;;;;;;4.00;3.70;;;25.00;44.10;;;;;;5103500;28;20629;-68
2021/06/01 08:37:40;;;;;;;3.50;3.20;;;24.50;43.90;;;;;;5100188;28;20638;-67
2021/06/01 08:40:08;;;;;;;3.60;3.30;;;24.30;44.20;;;;;;5096496;28;20749;-68
2021/06/01 08:42:35;;;;;;;3.93;3.63;;;23.80;45.00;;;;;;5104236;28;20627;-67
2021/06/01 08:45:03;;;;;;;3.50;3.20;;;23.80;45.10;;;;;;5103613;28;20725;-68
2021/06/01 08:47:30;;;;;;;4.70;3.77;;;24.30;43.70;;;;;;5102000;28;20636;-67
2021/06/01 08:49:59;;;;;;;5.60;3.60;;;24.60;44.30;;;;;;5106643;28;20624;-68
2021/06/01 08:52:27;;;;;;;3.47;3.27;;;24.30;44.70;;;;;;5109186;28;20728;-68
2021/06/01 08:54:54;;;;;;;3.40;3.20;;;25.40;45.00;;;;;;5106584;28;20724;-68
2021/06/01 08:57:21;;;;;;;3.73;3.43;;;25.90;43.70;;;;;;5110447;28;20641;-67
2021/06/01 08:59:47;;;;;;;3.80;3.60;;;25.70;42.00;;;;;;5101757;28;20673;-68
2021/06/01 09:02:20;;;;;;;3.80;3.50;;;25.30;43.40;;;;;;5107472;28;20630;-68
2021/06/01 09:04:51;;;;;;;3.50;3.30;;;25.00;43.40;;;;;;5107243;28;20645;-68
2021/06/01 09:07:25;;;;;;;4.10;3.80;;;25.00;42.60;;;;;;5112725;27;20617;-68
2021/06/01 09:10:20;;;;;;;4.03;3.80;;;25.80;42.90;;;;;;5106991;28;21192;-68
2021/06/01 09:21:36;;;;;;;3.73;3.10;;;25.10;43.30;;;;;;5074438;28;21209;-67
2021/06/01 09:24:04;;;;;;;3.57;3.37;;;24.00;45.00;;;;;;5108078;28;20630;-67
2021/06/01 09:26:54;;;;;;;3.47;3.27;;;23.70;45.10;;;;;;5107025;28;20662;-67
2021/06/01 09:29:21;;;;;;;3.80;3.60;;;24.20;45.40;;;;;;5103901;28;20637;-67
2021/06/01 09:32:05;;;;;;;3.40;3.20;;;25.10;44.20;;;;;;5099298;28;20637;-67
2021/06/01 09:34:36;;;;;;;3.57;3.37;;;25.40;45.30;;;;;;5099331;28;20680;-68
2021/06/01 09:37:17;;;;;;;4.27;3.90;;;25.80;42.30;;;;;;5104395;28;21007;-67
2021/06/01 09:39:44;;;;;;;3.63;3.30;;;26.30;43.60;;;;;;5107099;28;20678;-67
2021/06/01 09:42:28;;;;;;;3.47;3.27;;;25.60;43.40;;;;;;5098133;28;20733;-67
2021/06/01 09:45:10;;;;;;;4.90;3.50;;;25.30;45.20;;;;;;5097896;28;21243;-67
2021/06/01 09:47:49;;;;;;;3.70;3.40;;;25.10;44.50;;;;;;5103462;28;20663;-68
2021/06/01 09:50:25;;;;;;;3.67;3.47;;;25.60;44.20;;;;;;5104969;28;21058;-67
2021/06/01 09:52:56;;;;;;;3.47;3.17;;;25.40;43.60;;;;;;5106480;28;20627;-67
2021/06/01 09:55:27;;;;;;;3.73;3.50;;;25.50;42.80;;;;;;5095772;28;21122;-67
2021/06/01 09:57:55;;;;;;;4.13;3.90;;;25.90;43.20;;;;;;5100970;28;20629;-66
2021/06/01 10:00:24;;;;;;;3.97;3.67;;;26.00;42.90;;;;;;5096384;28;21089;-66
2021/06/01 10:02:53;;;;;;;3.87;3.57;;;25.80;44.00;;;;;;5101507;28;20655;-66
2021/06/01 10:05:22;;;;;;;4.27;3.93;;;25.30;44.90;;;;;;5108894;28;20678;-66
2021/06/01 10:07:50;;;;;;;4.30;3.57;;;25.60;47.30;;;;;;5102996;28;21047;-66
2021/06/01 10:10:19;;;;;;;3.67;3.47;;;25.80;44.70;;;;;;5101402;28;20638;-66
2021/06/01 10:12:47;;;;;;;3.63;3.40;;;25.40;44.40;;;;;;5107293;28;20720;-67
2021/06/01 10:15:17;;;;;;;3.77;3.47;;;25.50;44.10;;;;;;5109112;28;20778;-67
2021/06/01 10:17:44;;;;;;;4.43;4.00;;;24.80;44.70;;;;;;5108357;28;20634;-67
2021/06/01 10:20:12;;;;;;;4.83;4.43;;;24.40;45.10;;;;;;5103331;28;20701;-67
2021/06/01 10:22:39;;;;;;;4.20;3.90;;;24.10;46.50;;;;;;5105989;28;21168;-66
2021/06/01 10:25:07;;;;;;;4.07;3.77;;;24.20;46.20;;;;;;5105010;28;20629;-67
2021/06/01 10:27:33;;;;;;;4.77;4.37;;;24.00;45.80;;;;;;5100410;28;21146;-68
2021/06/01 10:30:01;;;;;;;4.63;4.33;;;24.00;47.20;;;;;;5105895;28;20627;-67
2021/06/01 10:32:30;;;;;;;4.20;3.80;;;24.20;46.00;;;;;;5104996;28;20761;-68
2021/06/01 10:34:58;;;;;;;4.13;3.83;;;24.10;45.40;;;;;;5100705;28;20634;-66
2021/06/01 10:48:58;;;;;;;4.27;3.97;;;23.70;47.10;;;;;;5100308;28;20691;-66
2021/06/01 10:51:28;;;;;;;4.33;3.93;;;24.30;46.40;;;;;;5104498;28;20696;-67
2021/06/01 10:53:55;;;;;;;4.23;3.83;;;23.90;46.00;;;;;;5101580;28;20728;-67
2021/06/01 10:56:22;;;;;;;4.43;4.13;;;23.70;45.20;;;;;;5104634;28;20677;-66
2021/06/01 10:59:08;;;;;;;4.30;3.90;;;23.40;46.40;;;;;;5103970;28;20634;-67
2021/06/01 11:04:22;;;;;;;4.20;3.90;;;23.40;47.40;;;;;;5105146;28;20652;-67
2021/06/01 11:07:14;;;;;;;4.13;3.83;;;23.20;46.60;;;;;;5103890;28;20634;-67
2021/06/01 11:09:45;;;;;;;4.00;3.70;;;22.90;47.70;;;;;;5104894;28;20689;-67
2021/06/01 11:12:41;;;;;;;6.63;3.87;;;22.30;48.40;;;;;;5103273;28;20630;-67
2021/06/01 11:15:29;;;;;;;4.43;4.03;;;22.10;49.00;;;;;;5095228;28;20636;-67
2021/06/01 11:18:22;;;;;;;4.23;4.03;;;22.30;49.70;;;;;;5102048;28;20633;-67
2021/06/01 11:21:25;;;;;;;8.40;5.90;;;22.30;48.90;;;;;;5098677;28;21276;-67
2021/06/01 11:35:48;;;;;;;4.95;4.55;;;22.10;50.20;;;;;;5098596;28;20207;-68
2021/06/01 11:38:20;;;;;;;4.28;3.97;;;21.90;49.20;;;;;;5101409;28;20196;-67
2021/06/01 11:40:58;;;;;;;4.50;4.20;;;22.00;50.40;;;;;;5104582;28;20236;-67
2021/06/01 11:43:25;;;;;;;4.40;4.10;;;22.20;50.30;;;;;;5103492;28;20262;-67
2021/06/01 11:45:56;;;;;;;4.60;4.30;;;22.60;51.20;;;;;;5104794;28;20618;-67
2021/06/01 11:51:12;;;;;;;4.23;3.97;;;22.30;49.70;;;;;;5095735;28;20613;-66
2021/06/01 11:54:02;;;;;;;4.30;4.00;;;22.20;50.10;;;;;;5105895;28;20633;-67
2021/06/01 11:56:56;;;;;;;5.20;4.80;;;22.20;48.50;;;;;;5099047;28;20648;-67
2021/06/01 12:02:17;;;;;;;6.23;5.70;;;22.40;49.30;;;;;;5101058;28;20613;-66
2021/06/01 12:04:52;;;;;;;5.90;5.40;;;22.40;50.10;;;;;;5100025;28;21251;-67
2021/06/01 12:18:31;;;;;;;5.30;4.90;;;22.50;50.40;;;;;;5021036;28;21001;-67
2021/06/01 12:20:58;;;;;;;4.20;4.00;;;22.80;50.50;;;;;;5094602;28;20645;-67
2021/06/01 12:23:31;;;;;;;5.07;4.57;;;22.90;49.10;;;;;;5104117;28;20676;-67
2021/06/01 12:26:07;;;;;;;4.50;4.20;;;22.70;49.50;;;;;;5103096;28;20999;-67
2021/06/01 12:31:21;;;;;;;4.57;4.17;;;22.70;50.20;;;;;;5102682;28;21300;-67
2021/06/01 12:33:58;;;;;;;6.03;4.53;;;22.90;50.40;;;;;;5110533;28;20641;-67
2021/06/01 12:42:32;;;;;;;4.87;4.10;;;23.10;49.80;;;;;;5106211;28;20608;-68
2021/06/01 12:44:59;;;;;;;4.67;4.37;;;23.00;50.60;;;;;;5103597;28;20621;-67
2021/06/01 12:47:51;;;;;;;4.40;4.10;;;23.10;49.00;;;;;;5107739;28;20720;-67
2021/06/01 13:13:10;;;;;;;4.70;4.37;;;23.00;48.20;;;;;;5107812;28;21091;-68
2021/06/01 13:21:05;;;;;;;4.67;4.27;;;23.50;48.10;;;;;;5106170;28;20625;-67
2021/06/01 13:24:04;;;;;;;4.80;4.40;;;23.60;47.10;;;;;;5108792;28;21438;-68
2021/06/01 13:32:31;;;;;;;4.20;3.93;;;23.00;47.40;;;;;;5083093;28;20618;-67
2021/06/01 13:40:37;;;;;;;4.57;4.27;;;23.10;46.70;;;;;;5108733;28;20632;-67
2021/06/01 13:46:02;;;;;;;4.10;3.80;;;23.00;46.50;;;;;;5108590;28;21073;-66
2021/06/01 13:48:46;;;;;;;4.20;3.90;;;23.10;48.00;;;;;;5106362;28;20687;-67
2021/06/01 13:51:26;;;;;;;4.33;4.03;;;23.20;47.80;;;;;;5100092;28;21396;-67
2021/06/01 13:57:01;;;;;;;4.60;4.30;;;23.40;48.00;;;;;;5096240;28;20749;-67
2021/06/01 14:02:40;;;;;;;4.10;3.80;;;23.10;47.90;;;;;;5102689;28;20637;-67
2021/06/01 14:22:24;;;;;;;4.93;4.63;;;23.10;50.00;;;;;;5073657;28;20998;-67
2021/06/01 14:30:23;;;;;;;5.00;4.70;;;23.10;49.80;;;;;;5107789;28;21236;-68
2021/06/01 14:35:53;;;;;;;5.40;4.60;;;23.20;49.50;;;;;;5098090;28;20594;-67
2021/06/01 15:09:19;;;;;;;4.87;4.47;;;23.10;48.80;;;;;;5104237;28;20643;-67
2021/06/01 15:28:49;;;;;;;4.37;4.07;;;23.00;49.10;;;;;;5078257;28;21229;-67
2021/06/01 15:31:30;;;;;;;4.40;4.10;;;23.00;48.80;;;;;;5103931;28;20664;-67
2021/06/01 15:47:55;;;;;;;4.00;3.70;;;23.00;48.50;;;;;;5099714;28;20621;-67
2021/06/01 15:50:29;;;;;;;4.03;3.30;;;23.10;47.70;;;;;;5093948;28;21008;-67
2021/06/01 16:21:22;;;;;;;3.80;3.60;;;23.00;47.10;;;;;;5098164;28;20615;-67
2021/06/01 16:21:26;;;;;;;4.40;4.10;;;22.90;47.40;;;;;;5099180;28;20589;-68
2021/06/01 16:29:43;;;;;;;4.93;4.57;;;22.90;48.30;;;;;;5104998;28;20616;-68
2021/06/01 16:32:23;;;;;;;5.27;3.77;;;22.90;48.80;;;;;;5096002;28;20319;-68
2021/06/01 16:43:31;;;;;;;3.57;3.37;;;22.70;49.00;;;;;;5106267;28;20623;-68
2021/06/01 17:05:18;;;;;;;3.50;3.20;;;22.60;48.20;;;;;;5100036;28;20647;-67
2021/06/01 17:13:22;;;;;;;3.67;3.47;;;22.30;47.80;;;;;;5104046;28;20697;-68
2021/06/01 17:15:54;;;;;;;3.67;3.37;;;22.40;48.50;;;;;;5106354;28;20717;-68
2021/06/01 17:18:36;;;;;;;4.20;3.80;;;22.40;48.60;;;;;;5106085;28;20668;-68
2021/06/01 17:21:46;;;;;;;3.83;3.53;;;22.40;48.30;;;;;;5108209;28;20630;-67
2021/06/01 17:35:24;;;;;;;3.90;3.30;;;22.20;49.00;;;;;;5107067;28;20624;-67
2021/06/01 17:37:51;;;;;;;3.70;3.50;;;22.10;49.30;;;;;;5108172;28;21070;-68